KVJI/VJI METAR and TAF weather

Enter ICAO airport designator
Station Type Date Time Source
KVJI METAR 2022/11/27 07:35 UTC NOAA

KVJI 270735Z AUTO 10008KT 10SM -RA SCT036 BKN090 OVC110 09/05 A2988 RMK AO2 T00940045


Station Type Date Time Source
KVJI Decoded METAR 2022/11/27 07:35 UTC NOAA

Abingdon, VA, United States (KVJI) 36-41N 082-02W
Nov 27, 2022 - 02:35 AM EST / 2022.11.27 0735 UTC
Wind: from the E (100 degrees) at 9 MPH (8 KT):0
Visibility: 10 mile(s):0
Sky conditions: overcast
Weather: light rain
Temperature: 48.9 F (9.4 C)
Dew Point: 40.1 F (4.5 C)
Relative Humidity: 71%
Pressure (altimeter): 29.88 in. Hg (1011 hPa)
ob: KVJI 270735Z AUTO 10008KT 10SM -RA SCT036 BKN090 OVC110 09/05 A2988 RMK AO2 T00940045
cycle: 7

Station Type Date Time Source
KVJI TAF UTC NOAA

Error!

Example: see airport list